Oceana Nas /Apollo Soucek Field/ Station
KNTU : now visible

Airfield :











YOU CAN JOIN US ON...

 
LOGIN :

Register | Disclaimer

   EN    FR    IT 

 









Legend :    VFR   Marginal VFR   IFR   Intensive IFR   Very Intensive IFR
Visi :
Ceiling :
>= 8 km
>= 3000ft
5 to 8 km
1000 to 3000 ft
1500m to 5 km
500 to 1000 ft
800 to 1500m
200 to 500 ft
< 800m
< 200 ft
Symbols :   Thunderstorms  Fog  Heavy snow  Heavy precipitations  Wind > 20 kt






- Airport Elevation : 23 ft


KNTU - Oceana Nas /Apollo Soucek Field/ Station

CURRENT METAR :
  • 220114Z AUTO 01012KT 1SM -SN BR OVC012 M02/M04 A3039 RMK AO2 P0000 T10221039

EXPIRED METARs :
  • 220056Z AUTO 01014KT 1 1/4SM -SN BR BKN012 OVC017 M02/M04 A3039 RMK AO2 SLP292 P0000 T10171039
  • 220047Z AUTO 01015KT 1 3/4SM -SN BR BKN012 OVC018 M02/M04 A3039 RMK AO2 P0000 T10171039
  • 212356Z AUTO 01014G21KT 1 1/2SM -SN BR FEW010 SCT015 OVC020 M02/M03 A3039 RMK AO2 SLP295 P0000 60001 T10171033 11011 21017 53002
  • 212321Z AUTO 01014KT 1 1/2SM -SN BR FEW009 OVC017 M02/M04 A3040 RMK AO2 P0000 T10171039
  • 212312Z AUTO 01013KT 1 1/2SM -SN BR FEW010 OVC016 M02/M03 A3039 RMK AO2 P0000 T10171033
  • 212256Z AUTO 01013KT 1 1/4SM -SN BR OVC017 M02/M03 A3039 RMK AO2 SLP293 P0001 T10171033
  • 212245Z AUTO 01013KT 1 1/2SM -SN BR FEW012 OVC019 M02/M03 A3039 RMK AO2 P0001 T10171033
  • 212235Z AUTO 01013KT 2SM -SN BR FEW015 OVC021 M02/M04 A3039 RMK AO2 P0000 T10171039

TAF TAF KNTU
Valid from the 21 at 23:00 until the 22 at 23:00 UTC


2123/2223 35015G23KT 1200 -SN OVC010 640009 640909 540006 QNH3035INS
BECMG 2200/2202 35015G23KT 1200 -SN OVC010 QNH3025INS
TEMPO 2204/2210 0800 +SN OVC008
BECMG 2212/2214 35015G23KT 9999 VCSH BKN010 OVC035 QNH3028INS
BECMG 2214/2216 34013G23KT 9999 NSW SCT010 BKN035 QNH3024INS
BECMG 2218/2220 33010KT 9999 SCT010 BKN035 QNH3018INS AUTOMATED SENSOR METWATCH TIL 2312 TM03/2203Z T01/2220Z FN00253
KZDC FIR / North America



MET'MAP, your aeronautical weather chart ! - Copyright ORBIFLY December 2007 - Disclaimer

ORBIFLY MET'MAP TEAM :

Programming & Development : Alexandra Zaïnal
Concept & original design : Baudouin d'Aumeries
Assistance for programming : Marc-Olivier Méhu
Technical & hardware support : Manuel Goepfert

Contact : metmap@orbifly.com




SOURCES & CREDITS :

   NOAA       Earth
Advisory